sensor_id;sensor_type;location;lat;lon;timestamp;P1;durP1;ratioP1;P2;durP2;ratioP2
42802;SDS011;28447;48.682;9.022;2022-08-19T00:01:46;21.97;;;15.17;;
42802;SDS011;28447;48.682;9.022;2022-08-19T00:04:13;21.67;;;14.50;;
42802;SDS011;28447;48.682;9.022;2022-08-19T00:06:40;20.93;;;14.90;;
42802;SDS011;28447;48.682;9.022;2022-08-19T00:09:08;23.87;;;15.80;;
42802;SDS011;28447;48.682;9.022;2022-08-19T00:11:34;22.83;;;15.80;;
42802;SDS011;28447;48.682;9.022;2022-08-19T00:14:02;23.73;;;15.63;;
42802;SDS011;28447;48.682;9.022;2022-08-19T00:16:29;25.50;;;16.23;;
42802;SDS011;28447;48.682;9.022;2022-08-19T00:18:55;22.97;;;16.73;;
42802;SDS011;28447;48.682;9.022;2022-08-19T00:21:22;24.27;;;16.47;;
42802;SDS011;28447;48.682;9.022;2022-08-19T00:23:48;23.20;;;16.37;;
42802;SDS011;28447;48.682;9.022;2022-08-19T00:26:14;22.97;;;15.77;;
42802;SDS011;28447;48.682;9.022;2022-08-19T00:28:40;22.80;;;16.20;;
42802;SDS011;28447;48.682;9.022;2022-08-19T00:31:07;24.73;;;17.20;;
42802;SDS011;28447;48.682;9.022;2022-08-19T00:33:33;24.23;;;16.73;;
42802;SDS011;28447;48.682;9.022;2022-08-19T00:36:00;22.27;;;16.00;;
42802;SDS011;28447;48.682;9.022;2022-08-19T00:38:26;24.30;;;16.53;;
42802;SDS011;28447;48.682;9.022;2022-08-19T00:40:52;23.03;;;16.63;;
42802;SDS011;28447;48.682;9.022;2022-08-19T00:43:20;21.80;;;16.60;;
42802;SDS011;28447;48.682;9.022;2022-08-19T00:45:46;28.43;;;18.07;;
42802;SDS011;28447;48.682;9.022;2022-08-19T00:48:12;25.17;;;16.47;;
42802;SDS011;28447;48.682;9.022;2022-08-19T00:50:39;29.00;;;18.53;;
42802;SDS011;28447;48.682;9.022;2022-08-19T00:53:08;26.43;;;17.57;;
42802;SDS011;28447;48.682;9.022;2022-08-19T00:55:35;28.90;;;17.30;;
42802;SDS011;28447;48.682;9.022;2022-08-19T00:58:04;26.63;;;18.40;;
42802;SDS011;28447;48.682;9.022;2022-08-19T01:00:32;24.40;;;17.80;;
42802;SDS011;28447;48.682;9.022;2022-08-19T01:03:05;24.67;;;17.40;;
42802;SDS011;28447;48.682;9.022;2022-08-19T01:05:32;24.87;;;16.97;;
42802;SDS011;28447;48.682;9.022;2022-08-19T01:07:59;30.07;;;18.50;;
42802;SDS011;28447;48.682;9.022;2022-08-19T01:10:27;29.60;;;18.30;;
42802;SDS011;28447;48.682;9.022;2022-08-19T01:12:55;25.50;;;18.10;;
42802;SDS011;28447;48.682;9.022;2022-08-19T01:15:23;25.93;;;17.47;;
42802;SDS011;28447;48.682;9.022;2022-08-19T01:17:49;23.10;;;17.37;;
42802;SDS011;28447;48.682;9.022;2022-08-19T01:20:20;27.27;;;18.83;;
42802;SDS011;28447;48.682;9.022;2022-08-19T01:25:13;24.83;;;17.33;;
42802;SDS011;28447;48.682;9.022;2022-08-19T01:27:41;27.30;;;18.97;;
42802;SDS011;28447;48.682;9.022;2022-08-19T01:30:08;28.67;;;18.00;;
42802;SDS011;28447;48.682;9.022;2022-08-19T01:32:34;29.37;;;19.80;;
42802;SDS011;28447;48.682;9.022;2022-08-19T01:35:01;25.60;;;18.43;;
42802;SDS011;28447;48.682;9.022;2022-08-19T01:37:27;31.03;;;20.67;;
42802;SDS011;28447;48.682;9.022;2022-08-19T01:39:55;32.70;;;20.03;;
42802;SDS011;28447;48.682;9.022;2022-08-19T01:42:21;30.43;;;19.80;;
42802;SDS011;28447;48.682;9.022;2022-08-19T01:44:47;32.00;;;19.30;;
42802;SDS011;28447;48.682;9.022;2022-08-19T01:47:13;29.27;;;19.07;;
42802;SDS011;28447;48.682;9.022;2022-08-19T01:49:41;32.43;;;22.00;;
42802;SDS011;28447;48.682;9.022;2022-08-19T01:52:07;32.13;;;20.87;;
42802;SDS011;28447;48.682;9.022;2022-08-19T01:54:33;37.10;;;20.37;;
42802;SDS011;28447;48.682;9.022;2022-08-19T01:57:06;32.30;;;21.47;;
42802;SDS011;28447;48.682;9.022;2022-08-19T01:59:33;37.80;;;20.50;;
42802;SDS011;28447;48.682;9.022;2022-08-19T02:02:01;36.10;;;21.53;;
42802;SDS011;28447;48.682;9.022;2022-08-19T02:04:29;32.20;;;20.60;;
42802;SDS011;28447;48.682;9.022;2022-08-19T02:06:55;32.50;;;22.67;;
42802;SDS011;28447;48.682;9.022;2022-08-19T02:09:22;32.57;;;20.83;;
42802;SDS011;28447;48.682;9.022;2022-08-19T02:11:49;35.67;;;23.07;;
42802;SDS011;28447;48.682;9.022;2022-08-19T02:14:15;31.60;;;20.13;;
42802;SDS011;28447;48.682;9.022;2022-08-19T02:16:41;35.00;;;21.80;;
42802;SDS011;28447;48.682;9.022;2022-08-19T02:19:07;32.80;;;22.30;;
42802;SDS011;28447;48.682;9.022;2022-08-19T02:21:33;34.23;;;23.43;;
42802;SDS011;28447;48.682;9.022;2022-08-19T02:24:00;37.10;;;22.13;;
42802;SDS011;28447;48.682;9.022;2022-08-19T02:26:26;32.60;;;21.30;;
42802;SDS011;28447;48.682;9.022;2022-08-19T02:28:52;39.40;;;24.10;;
42802;SDS011;28447;48.682;9.022;2022-08-19T02:31:19;37.37;;;22.63;;
42802;SDS011;28447;48.682;9.022;2022-08-19T02:33:46;32.90;;;21.57;;
42802;SDS011;28447;48.682;9.022;2022-08-19T02:36:13;32.60;;;20.30;;
42802;SDS011;28447;48.682;9.022;2022-08-19T02:38:39;35.67;;;22.87;;
42802;SDS011;28447;48.682;9.022;2022-08-19T02:41:11;34.53;;;22.13;;
42802;SDS011;28447;48.682;9.022;2022-08-19T02:43:37;36.10;;;22.00;;
42802;SDS011;28447;48.682;9.022;2022-08-19T02:46:12;34.97;;;23.30;;
42802;SDS011;28447;48.682;9.022;2022-08-19T02:48:38;34.13;;;21.80;;
42802;SDS011;28447;48.682;9.022;2022-08-19T02:51:04;37.23;;;23.20;;
42802;SDS011;28447;48.682;9.022;2022-08-19T02:53:30;33.70;;;21.00;;
42802;SDS011;28447;48.682;9.022;2022-08-19T02:55:57;33.17;;;21.23;;
42802;SDS011;28447;48.682;9.022;2022-08-19T02:58:23;33.67;;;21.80;;
42802;SDS011;28447;48.682;9.022;2022-08-19T03:00:52;36.80;;;24.23;;
42802;SDS011;28447;48.682;9.022;2022-08-19T03:03:19;38.07;;;23.80;;
42802;SDS011;28447;48.682;9.022;2022-08-19T03:05:45;33.43;;;21.97;;
42802;SDS011;28447;48.682;9.022;2022-08-19T03:08:11;33.77;;;22.13;;
42802;SDS011;28447;48.682;9.022;2022-08-19T03:10:41;33.87;;;22.83;;
42802;SDS011;28447;48.682;9.022;2022-08-19T03:13:09;36.53;;;24.33;;
42802;SDS011;28447;48.682;9.022;2022-08-19T03:15:38;36.30;;;22.90;;
42802;SDS011;28447;48.682;9.022;2022-08-19T03:18:04;35.90;;;23.90;;
42802;SDS011;28447;48.682;9.022;2022-08-19T03:20:30;40.00;;;24.57;;
42802;SDS011;28447;48.682;9.022;2022-08-19T03:22:56;33.00;;;21.97;;
42802;SDS011;28447;48.682;9.022;2022-08-19T03:25:22;37.67;;;24.60;;
42802;SDS011;28447;48.682;9.022;2022-08-19T03:27:48;40.87;;;26.77;;
42802;SDS011;28447;48.682;9.022;2022-08-19T03:30:14;33.60;;;23.57;;
42802;SDS011;28447;48.682;9.022;2022-08-19T03:32:40;39.83;;;26.43;;
42802;SDS011;28447;48.682;9.022;2022-08-19T03:35:06;38.73;;;24.70;;
42802;SDS011;28447;48.682;9.022;2022-08-19T03:37:33;40.17;;;25.27;;
42802;SDS011;28447;48.682;9.022;2022-08-19T03:39:59;39.03;;;24.17;;
42802;SDS011;28447;48.682;9.022;2022-08-19T03:42:27;37.13;;;24.00;;
42802;SDS011;28447;48.682;9.022;2022-08-19T03:44:53;41.70;;;25.17;;
42802;SDS011;28447;48.682;9.022;2022-08-19T03:47:19;41.30;;;26.13;;
42802;SDS011;28447;48.682;9.022;2022-08-19T03:49:45;38.77;;;25.87;;
42802;SDS011;28447;48.682;9.022;2022-08-19T03:52:12;37.23;;;24.87;;
42802;SDS011;28447;48.682;9.022;2022-08-19T03:54:39;43.17;;;24.73;;
42802;SDS011;28447;48.682;9.022;2022-08-19T03:57:05;38.77;;;26.50;;
42802;SDS011;28447;48.682;9.022;2022-08-19T03:59:32;39.20;;;26.73;;
42802;SDS011;28447;48.682;9.022;2022-08-19T04:02:00;38.97;;;26.17;;
42802;SDS011;28447;48.682;9.022;2022-08-19T04:04:26;40.93;;;26.53;;
42802;SDS011;28447;48.682;9.022;2022-08-19T04:06:53;43.33;;;25.80;;
42802;SDS011;28447;48.682;9.022;2022-08-19T04:09:19;43.50;;;25.50;;
42802;SDS011;28447;48.682;9.022;2022-08-19T04:11:47;43.27;;;27.03;;
42802;SDS011;28447;48.682;9.022;2022-08-19T04:14:17;41.03;;;27.73;;
42802;SDS011;28447;48.682;9.022;2022-08-19T04:16:44;42.67;;;26.43;;
42802;SDS011;28447;48.682;9.022;2022-08-19T04:19:10;42.60;;;26.17;;
42802;SDS011;28447;48.682;9.022;2022-08-19T04:21:36;41.13;;;26.77;;
42802;SDS011;28447;48.682;9.022;2022-08-19T04:24:03;54.90;;;28.87;;
42802;SDS011;28447;48.682;9.022;2022-08-19T04:26:31;45.80;;;27.80;;
42802;SDS011;28447;48.682;9.022;2022-08-19T04:29:01;41.87;;;27.00;;
42802;SDS011;28447;48.682;9.022;2022-08-19T04:31:30;42.17;;;27.57;;
42802;SDS011;28447;48.682;9.022;2022-08-19T04:34:00;41.23;;;27.33;;
42802;SDS011;28447;48.682;9.022;2022-08-19T04:36:30;45.90;;;26.47;;
42802;SDS011;28447;48.682;9.022;2022-08-19T04:38:58;45.43;;;28.13;;
42802;SDS011;28447;48.682;9.022;2022-08-19T04:41:25;44.17;;;27.70;;
42802;SDS011;28447;48.682;9.022;2022-08-19T04:44:10;39.47;;;26.33;;
42802;SDS011;28447;48.682;9.022;2022-08-19T04:46:36;43.43;;;29.07;;
42802;SDS011;28447;48.682;9.022;2022-08-19T04:49:03;43.20;;;26.83;;
42802;SDS011;28447;48.682;9.022;2022-08-19T04:51:30;43.37;;;27.97;;
42802;SDS011;28447;48.682;9.022;2022-08-19T04:53:56;45.13;;;27.07;;
42802;SDS011;28447;48.682;9.022;2022-08-19T04:56:24;43.63;;;27.93;;
42802;SDS011;28447;48.682;9.022;2022-08-19T04:58:51;45.53;;;26.33;;
42802;SDS011;28447;48.682;9.022;2022-08-19T05:01:18;41.93;;;28.03;;
42802;SDS011;28447;48.682;9.022;2022-08-19T05:03:45;43.47;;;28.07;;
42802;SDS011;28447;48.682;9.022;2022-08-19T05:06:13;49.20;;;28.90;;
42802;SDS011;28447;48.682;9.022;2022-08-19T05:08:39;55.47;;;29.33;;
42802;SDS011;28447;48.682;9.022;2022-08-19T05:13:37;49.40;;;28.10;;
42802;SDS011;28447;48.682;9.022;2022-08-19T05:16:03;45.63;;;29.30;;
42802;SDS011;28447;48.682;9.022;2022-08-19T05:18:29;45.23;;;28.53;;
42802;SDS011;28447;48.682;9.022;2022-08-19T05:21:15;46.03;;;29.50;;
42802;SDS011;28447;48.682;9.022;2022-08-19T05:23:59;39.53;;;27.27;;
42802;SDS011;28447;48.682;9.022;2022-08-19T05:26:27;42.70;;;26.37;;
42802;SDS011;28447;48.682;9.022;2022-08-19T05:28:53;46.53;;;28.13;;
42802;SDS011;28447;48.682;9.022;2022-08-19T05:31:20;42.10;;;28.27;;
42802;SDS011;28447;48.682;9.022;2022-08-19T05:33:46;41.23;;;27.00;;
42802;SDS011;28447;48.682;9.022;2022-08-19T05:36:12;45.60;;;28.00;;
42802;SDS011;28447;48.682;9.022;2022-08-19T05:38:39;43.80;;;27.33;;
42802;SDS011;28447;48.682;9.022;2022-08-19T05:41:08;41.43;;;28.00;;
42802;SDS011;28447;48.682;9.022;2022-08-19T05:43:35;43.30;;;26.67;;
42802;SDS011;28447;48.682;9.022;2022-08-19T05:46:01;42.23;;;27.10;;
42802;SDS011;28447;48.682;9.022;2022-08-19T05:48:29;42.37;;;26.30;;
42802;SDS011;28447;48.682;9.022;2022-08-19T05:50:56;42.40;;;26.87;;
42802;SDS011;28447;48.682;9.022;2022-08-19T05:53:23;42.97;;;28.30;;
42802;SDS011;28447;48.682;9.022;2022-08-19T05:55:49;41.90;;;26.27;;
42802;SDS011;28447;48.682;9.022;2022-08-19T05:58:15;43.43;;;28.27;;
42802;SDS011;28447;48.682;9.022;2022-08-19T06:00:42;40.83;;;26.80;;
42802;SDS011;28447;48.682;9.022;2022-08-19T06:03:09;40.47;;;27.20;;
42802;SDS011;28447;48.682;9.022;2022-08-19T06:05:35;36.60;;;25.30;;
42802;SDS011;28447;48.682;9.022;2022-08-19T06:08:02;42.80;;;26.20;;
42802;SDS011;28447;48.682;9.022;2022-08-19T06:10:30;41.90;;;27.10;;
42802;SDS011;28447;48.682;9.022;2022-08-19T06:12:56;42.90;;;27.93;;
42802;SDS011;28447;48.682;9.022;2022-08-19T06:15:22;48.37;;;29.60;;
42802;SDS011;28447;48.682;9.022;2022-08-19T06:17:50;39.87;;;27.40;;
42802;SDS011;28447;48.682;9.022;2022-08-19T06:20:16;48.70;;;28.47;;
42802;SDS011;28447;48.682;9.022;2022-08-19T06:22:44;43.70;;;27.47;;
42802;SDS011;28447;48.682;9.022;2022-08-19T06:25:11;40.60;;;25.43;;
42802;SDS011;28447;48.682;9.022;2022-08-19T06:27:38;41.77;;;26.37;;
42802;SDS011;28447;48.682;9.022;2022-08-19T06:30:04;42.97;;;26.83;;
42802;SDS011;28447;48.682;9.022;2022-08-19T06:32:32;43.23;;;28.13;;
42802;SDS011;28447;48.682;9.022;2022-08-19T06:34:58;41.57;;;27.50;;
42802;SDS011;28447;48.682;9.022;2022-08-19T06:37:24;40.73;;;27.23;;
42802;SDS011;28447;48.682;9.022;2022-08-19T06:39:50;43.27;;;27.97;;
42802;SDS011;28447;48.682;9.022;2022-08-19T06:42:16;38.53;;;27.67;;
42802;SDS011;28447;48.682;9.022;2022-08-19T06:44:44;37.70;;;24.77;;
42802;SDS011;28447;48.682;9.022;2022-08-19T06:47:13;38.73;;;26.50;;
42802;SDS011;28447;48.682;9.022;2022-08-19T06:49:40;34.70;;;23.87;;
42802;SDS011;28447;48.682;9.022;2022-08-19T06:52:08;43.53;;;24.63;;
42802;SDS011;28447;48.682;9.022;2022-08-19T06:54:36;40.23;;;26.07;;
42802;SDS011;28447;48.682;9.022;2022-08-19T06:57:03;39.13;;;27.20;;
42802;SDS011;28447;48.682;9.022;2022-08-19T06:59:30;39.80;;;27.33;;
42802;SDS011;28447;48.682;9.022;2022-08-19T07:01:58;35.93;;;24.20;;
42802;SDS011;28447;48.682;9.022;2022-08-19T07:04:26;33.77;;;25.00;;
42802;SDS011;28447;48.682;9.022;2022-08-19T07:07:03;44.03;;;24.23;;
42802;SDS011;28447;48.682;9.022;2022-08-19T07:09:32;42.33;;;25.63;;
42802;SDS011;28447;48.682;9.022;2022-08-19T07:11:58;37.60;;;24.87;;
42802;SDS011;28447;48.682;9.022;2022-08-19T07:14:27;41.03;;;25.50;;
42802;SDS011;28447;48.682;9.022;2022-08-19T07:16:54;36.97;;;23.10;;
42802;SDS011;28447;48.682;9.022;2022-08-19T07:19:20;32.97;;;23.77;;
42802;SDS011;28447;48.682;9.022;2022-08-19T07:21:49;36.80;;;24.20;;
42802;SDS011;28447;48.682;9.022;2022-08-19T07:24:17;31.93;;;23.73;;
42802;SDS011;28447;48.682;9.022;2022-08-19T07:26:44;32.13;;;23.23;;
42802;SDS011;28447;48.682;9.022;2022-08-19T07:29:10;32.20;;;22.67;;
42802;SDS011;28447;48.682;9.022;2022-08-19T07:31:36;35.77;;;21.90;;
42802;SDS011;28447;48.682;9.022;2022-08-19T07:34:06;34.47;;;23.10;;
42802;SDS011;28447;48.682;9.022;2022-08-19T07:36:33;31.07;;;22.47;;
42802;SDS011;28447;48.682;9.022;2022-08-19T07:39:00;35.20;;;23.10;;
42802;SDS011;28447;48.682;9.022;2022-08-19T07:41:27;31.27;;;21.13;;
42802;SDS011;28447;48.682;9.022;2022-08-19T07:43:56;30.30;;;21.33;;
42802;SDS011;28447;48.682;9.022;2022-08-19T07:46:23;33.90;;;24.47;;
42802;SDS011;28447;48.682;9.022;2022-08-19T07:48:49;33.53;;;22.23;;
42802;SDS011;28447;48.682;9.022;2022-08-19T07:51:18;30.53;;;22.07;;
42802;SDS011;28447;48.682;9.022;2022-08-19T07:53:44;39.40;;;24.17;;
42802;SDS011;28447;48.682;9.022;2022-08-19T07:56:14;36.37;;;21.80;;
42802;SDS011;28447;48.682;9.022;2022-08-19T07:58:43;34.30;;;24.20;;
42802;SDS011;28447;48.682;9.022;2022-08-19T08:01:11;29.43;;;21.33;;
42802;SDS011;28447;48.682;9.022;2022-08-19T08:03:37;32.83;;;21.53;;
42802;SDS011;28447;48.682;9.022;2022-08-19T08:06:22;32.57;;;21.90;;
42802;SDS011;28447;48.682;9.022;2022-08-19T08:09:07;32.23;;;21.80;;
42802;SDS011;28447;48.682;9.022;2022-08-19T08:11:40;34.30;;;23.20;;
42802;SDS011;28447;48.682;9.022;2022-08-19T08:14:07;34.93;;;22.47;;
